createdAt,value
2023-03-18T00:00:33.141Z,17.67
2023-03-18T00:03:03.302Z,17.57
2023-03-18T00:05:32.074Z,17.10
2023-03-18T00:08:00.119Z,18.77
2023-03-18T00:10:27.948Z,17.70
2023-03-18T00:12:57.377Z,18.23
2023-03-18T00:15:25.214Z,19.63
2023-03-18T00:17:53.006Z,19.70
2023-03-18T00:20:29.300Z,19.57
2023-03-18T00:22:57.688Z,19.53
2023-03-18T00:25:25.747Z,19.83
2023-03-18T00:27:53.558Z,19.90
2023-03-18T00:30:24.072Z,19.67
2023-03-18T00:32:51.813Z,18.97
2023-03-18T00:35:19.784Z,19.10
2023-03-18T00:37:48.786Z,18.77
2023-03-18T00:40:20.607Z,21.03
2023-03-18T00:42:57.885Z,22.70
2023-03-18T00:45:27.418Z,20.37
2023-03-18T00:47:55.107Z,20.73
2023-03-18T00:50:23.303Z,19.43
2023-03-18T00:52:51.068Z,19.57
2023-03-18T00:55:19.037Z,21.33
2023-03-18T00:57:47.255Z,22.20
2023-03-18T01:00:17.044Z,21.23
2023-03-18T01:02:49.580Z,20.60
2023-03-18T01:05:18.538Z,21.13
2023-03-18T01:07:46.594Z,20.87
2023-03-18T01:10:14.778Z,20.90
2023-03-18T01:12:42.961Z,13.83
2023-03-18T01:15:11.380Z,12.30
2023-03-18T01:17:39.484Z,9.73
2023-03-18T01:20:11.682Z,7.07
2023-03-18T01:22:41.522Z,8.47
2023-03-18T01:25:10.223Z,7.60
2023-03-18T01:27:38.094Z,8.17
2023-03-18T01:30:06.619Z,8.33
2023-03-18T01:32:34.512Z,8.30
2023-03-18T01:35:02.223Z,8.70
2023-03-18T01:37:31.766Z,7.70
2023-03-18T01:39:59.533Z,8.20
2023-03-18T01:42:27.563Z,8.57
2023-03-18T01:45:11.585Z,12.17
2023-03-18T01:47:40.787Z,10.43
2023-03-18T01:50:09.997Z,14.63
2023-03-18T01:52:39.869Z,12.47
2023-03-18T01:55:11.067Z,10.83
2023-03-18T01:57:38.933Z,10.10
2023-03-18T02:00:08.109Z,10.90
2023-03-18T02:02:35.958Z,12.87
2023-03-18T02:05:06.135Z,15.53
2023-03-18T02:07:34.985Z,10.63
2023-03-18T02:10:05.960Z,8.67
2023-03-18T02:12:35.723Z,7.60
2023-03-18T02:15:05.304Z,6.73
2023-03-18T02:17:34.415Z,12.83
2023-03-18T02:20:06.758Z,17.67
2023-03-18T02:22:38.455Z,10.57
2023-03-18T02:25:13.615Z,12.33
2023-03-18T02:27:45.153Z,11.83
2023-03-18T02:30:16.800Z,18.53
2023-03-18T02:32:46.017Z,17.37
2023-03-18T02:35:15.039Z,15.73
2023-03-18T02:37:42.782Z,17.10
2023-03-18T02:40:15.574Z,16.43
2023-03-18T02:42:45.255Z,17.67
2023-03-18T02:45:18.168Z,16.67
2023-03-18T02:47:46.559Z,15.87
2023-03-18T02:50:14.570Z,16.00
2023-03-18T02:52:42.376Z,15.40
2023-03-18T02:55:10.306Z,15.30
2023-03-18T02:57:38.201Z,15.33
2023-03-18T03:00:09.587Z,15.43
2023-03-18T03:02:37.725Z,17.53
2023-03-18T03:05:05.760Z,16.97
2023-03-18T03:07:33.713Z,17.53
2023-03-18T03:10:02.144Z,15.97
2023-03-18T03:12:30.332Z,16.67
2023-03-18T03:14:58.306Z,16.03
2023-03-18T03:17:27.584Z,16.53
2023-03-18T03:19:56.531Z,14.97
2023-03-18T03:22:24.659Z,15.90
2023-03-18T03:24:52.648Z,15.83
2023-03-18T03:27:20.788Z,16.93
2023-03-18T03:29:48.559Z,16.47
2023-03-18T03:32:16.320Z,17.03
2023-03-18T03:34:45.685Z,18.93
2023-03-18T03:37:13.575Z,18.07
2023-03-18T03:39:41.602Z,19.27
2023-03-18T03:42:09.460Z,18.47
2023-03-18T03:44:37.816Z,18.93
2023-03-18T03:47:10.810Z,19.23
2023-03-18T03:49:39.952Z,20.10
2023-03-18T03:52:09.533Z,18.23
2023-03-18T03:54:38.285Z,15.70
2023-03-18T03:57:06.042Z,14.20
2023-03-18T03:59:34.217Z,15.47
2023-03-18T04:02:02.131Z,18.53
2023-03-18T04:04:29.938Z,15.70
2023-03-18T04:06:58.316Z,17.00
2023-03-18T04:09:29.434Z,9.67
2023-03-18T04:11:57.314Z,9.40
2023-03-18T04:14:25.149Z,11.83
2023-03-18T04:16:53.009Z,16.33
2023-03-18T04:19:21.193Z,15.13
2023-03-18T04:21:48.868Z,15.23
2023-03-18T04:24:16.910Z,14.63
2023-03-18T04:26:48.358Z,15.67
2023-03-18T04:29:16.082Z,14.67
2023-03-18T04:31:45.387Z,15.30
2023-03-18T04:34:13.847Z,15.20
2023-03-18T04:36:41.825Z,14.13
2023-03-18T04:39:10.335Z,16.10
2023-03-18T04:41:39.000Z,15.80
2023-03-18T04:44:08.207Z,16.27
2023-03-18T04:46:36.337Z,16.60
2023-03-18T04:49:04.117Z,17.53
2023-03-18T04:51:31.889Z,16.23
2023-03-18T04:53:59.935Z,18.40
2023-03-18T04:56:27.956Z,16.37
2023-03-18T04:58:55.703Z,15.87
2023-03-18T05:01:25.307Z,19.57
2023-03-18T05:03:53.303Z,17.03
2023-03-18T05:06:23.189Z,15.67
2023-03-18T05:08:51.513Z,18.00
2023-03-18T05:11:19.532Z,16.77
2023-03-18T05:13:48.019Z,17.53
2023-03-18T05:16:15.887Z,15.20
2023-03-18T05:18:45.418Z,12.67
2023-03-18T05:21:14.432Z,15.53
2023-03-18T05:23:42.366Z,15.17
2023-03-18T05:26:11.751Z,9.03
2023-03-18T05:28:40.456Z,8.93
2023-03-18T05:31:08.219Z,7.70
2023-03-18T05:33:36.191Z,6.27
2023-03-18T05:36:06.179Z,6.10
2023-03-18T05:38:34.958Z,5.20
2023-03-18T05:41:02.847Z,6.40
2023-03-18T05:43:30.744Z,5.33
2023-03-18T05:45:58.463Z,6.47
2023-03-18T05:48:27.192Z,6.20
2023-03-18T05:50:54.844Z,7.40
2023-03-18T05:53:23.820Z,9.20
2023-03-18T05:55:52.795Z,10.57
2023-03-18T05:58:21.311Z,12.77
2023-03-18T06:00:50.662Z,12.30
2023-03-18T06:03:18.780Z,12.83
2023-03-18T06:05:47.803Z,11.03
2023-03-18T06:08:15.671Z,12.97
2023-03-18T06:10:45.019Z,12.87
2023-03-18T06:13:13.090Z,12.53
2023-03-18T06:15:40.789Z,13.03
2023-03-18T06:18:08.592Z,12.57
2023-03-18T06:20:36.690Z,12.80
2023-03-18T06:23:05.384Z,13.60
2023-03-18T06:25:33.501Z,13.20
2023-03-18T06:28:02.820Z,13.80
2023-03-18T06:30:30.589Z,13.43
2023-03-18T06:32:58.978Z,13.00
2023-03-18T06:35:28.355Z,13.87
2023-03-18T06:37:56.912Z,12.63
2023-03-18T06:40:24.743Z,13.17
2023-03-18T06:42:52.599Z,13.47
2023-03-18T06:45:22.501Z,13.03
2023-03-18T06:47:51.801Z,13.40
2023-03-18T06:50:20.690Z,13.70
2023-03-18T06:52:48.556Z,12.43
2023-03-18T06:55:16.876Z,14.27
2023-03-18T06:57:45.373Z,12.60
2023-03-18T07:00:13.867Z,13.83
2023-03-18T07:02:45.979Z,13.87
2023-03-18T07:05:13.816Z,15.17
2023-03-18T07:07:42.228Z,15.27
2023-03-18T07:10:11.779Z,16.17
2023-03-18T07:12:40.526Z,16.47
2023-03-18T07:15:09.209Z,16.57
2023-03-18T07:17:37.541Z,17.20
2023-03-18T07:20:08.630Z,17.33
2023-03-18T07:22:37.491Z,18.10
2023-03-18T07:25:05.586Z,17.33
2023-03-18T07:27:33.839Z,16.90
2023-03-18T07:30:01.905Z,16.67
2023-03-18T07:32:30.361Z,15.13
2023-03-18T07:34:59.345Z,14.57
2023-03-18T07:37:28.928Z,15.53
2023-03-18T07:39:57.184Z,15.20
2023-03-18T07:42:24.910Z,15.03
2023-03-18T07:44:52.788Z,16.53
2023-03-18T07:47:21.190Z,17.13
2023-03-18T07:49:49.070Z,16.23
2023-03-18T07:52:16.802Z,16.03
2023-03-18T07:54:46.043Z,17.07
2023-03-18T07:57:13.938Z,15.17
2023-03-18T07:59:41.962Z,16.57
2023-03-18T08:02:12.480Z,15.50
2023-03-18T08:04:40.630Z,16.77
2023-03-18T08:07:09.140Z,15.77
2023-03-18T08:09:37.546Z,16.00
2023-03-18T08:12:07.262Z,15.83
2023-03-18T08:14:35.133Z,16.17
2023-03-18T08:17:04.584Z,15.47
2023-03-18T08:19:33.029Z,15.33
2023-03-18T08:22:00.818Z,16.87
2023-03-18T08:24:28.908Z,14.20
2023-03-18T08:26:57.214Z,12.93
2023-03-18T08:29:27.153Z,12.80
2023-03-18T08:31:55.517Z,14.57
2023-03-18T08:34:23.555Z,14.57
2023-03-18T08:36:52.841Z,12.30
2023-03-18T08:39:21.088Z,11.10
2023-03-18T08:41:49.001Z,10.93
2023-03-18T08:44:16.937Z,10.80
2023-03-18T08:46:46.321Z,11.23
2023-03-18T08:49:14.512Z,12.13
2023-03-18T08:51:42.756Z,10.57
2023-03-18T08:54:10.601Z,9.70
2023-03-18T08:56:39.810Z,10.37
2023-03-18T08:59:07.549Z,11.83
2023-03-18T09:01:35.401Z,9.77
2023-03-18T09:04:05.006Z,9.03
2023-03-18T09:06:32.918Z,9.27
2023-03-18T09:09:00.725Z,9.23
2023-03-18T09:11:29.326Z,9.83
2023-03-18T09:13:57.460Z,9.20
2023-03-18T09:16:25.282Z,8.37
2023-03-18T09:18:53.263Z,10.97
2023-03-18T09:21:22.594Z,8.73
2023-03-18T09:23:50.675Z,9.70
2023-03-18T09:26:18.822Z,6.93
2023-03-18T09:28:47.261Z,6.90
2023-03-18T09:31:15.673Z,7.33
2023-03-18T09:33:44.061Z,4.00
2023-03-18T09:36:12.137Z,4.13
2023-03-18T09:38:41.371Z,4.83
2023-03-18T09:41:16.628Z,5.40
2023-03-18T09:43:50.637Z,5.23
2023-03-18T09:46:23.244Z,5.60
2023-03-18T09:48:58.054Z,6.17
2023-03-18T09:51:31.920Z,4.60
2023-03-18T09:54:03.754Z,4.97
2023-03-18T09:56:35.088Z,4.93
2023-03-18T09:59:04.234Z,5.23
2023-03-18T10:01:34.483Z,4.90
2023-03-18T10:04:05.884Z,4.50
2023-03-18T10:06:34.322Z,5.73
2023-03-18T10:09:06.978Z,4.10
2023-03-18T10:11:36.626Z,5.00
2023-03-18T10:14:17.772Z,3.60
2023-03-18T10:16:50.362Z,4.00
2023-03-18T10:19:18.511Z,4.13
2023-03-18T10:21:50.644Z,3.83
2023-03-18T10:24:25.567Z,4.57
2023-03-18T10:26:57.686Z,2.93
2023-03-18T10:29:36.603Z,2.13
2023-03-18T10:32:09.211Z,3.53
2023-03-18T10:34:42.072Z,2.90
2023-03-18T10:37:15.471Z,2.90
2023-03-18T10:39:45.945Z,3.17
2023-03-18T10:42:19.630Z,3.53
2023-03-18T10:44:49.582Z,3.27
2023-03-18T10:47:21.164Z,3.27
2023-03-18T10:49:51.829Z,2.57
2023-03-18T10:52:21.994Z,2.33
2023-03-18T10:54:53.122Z,2.40
2023-03-18T10:57:21.613Z,2.17
2023-03-18T10:59:52.377Z,2.30
2023-03-18T11:02:23.083Z,2.43
2023-03-18T11:04:52.133Z,2.27
2023-03-18T11:07:24.029Z,2.63
2023-03-18T11:09:53.663Z,2.30
2023-03-18T11:12:25.896Z,2.90
2023-03-18T11:14:54.359Z,2.93
2023-03-18T11:17:24.322Z,2.90
2023-03-18T11:20:02.076Z,1.90
2023-03-18T11:22:30.135Z,2.50
2023-03-18T11:25:16.742Z,2.20
2023-03-18T11:27:46.168Z,2.60
2023-03-18T11:30:33.006Z,2.30
2023-03-18T11:33:05.112Z,2.83
2023-03-18T11:35:34.616Z,2.33
2023-03-18T11:38:04.349Z,2.03
2023-03-18T11:40:34.204Z,2.10
2023-03-18T11:43:05.265Z,2.67
2023-03-18T11:45:50.763Z,2.00
2023-03-18T11:48:20.548Z,2.37
2023-03-18T11:50:58.658Z,2.30
2023-03-18T11:53:31.013Z,2.67
2023-03-18T11:56:02.906Z,2.20
2023-03-18T11:58:41.160Z,2.47
2023-03-18T12:01:12.183Z,2.87
2023-03-18T12:03:55.019Z,2.80
2023-03-18T12:06:23.610Z,2.40
2023-03-18T12:08:57.145Z,2.43
2023-03-18T12:11:33.162Z,2.90
2023-03-18T12:14:04.813Z,2.33
2023-03-18T12:16:44.969Z,2.50
2023-03-18T12:19:21.202Z,2.47
2023-03-18T12:21:59.257Z,2.90
2023-03-18T12:24:45.884Z,2.50
2023-03-18T12:27:21.415Z,2.20
2023-03-18T12:30:04.244Z,2.37
2023-03-18T12:32:35.401Z,3.10
2023-03-18T12:35:27.241Z,2.50
2023-03-18T12:38:06.214Z,2.90
2023-03-18T12:40:41.276Z,2.77
2023-03-18T12:43:39.776Z,2.50
2023-03-18T12:46:13.842Z,2.80
2023-03-18T12:48:50.079Z,2.17
2023-03-18T12:51:20.189Z,3.50
2023-03-18T12:53:51.370Z,2.70
2023-03-18T12:56:21.655Z,3.50
2023-03-18T12:58:51.637Z,2.80
2023-03-18T13:01:24.343Z,3.07
2023-03-18T13:03:54.492Z,2.60
2023-03-18T13:06:25.868Z,2.67
2023-03-18T13:08:57.511Z,2.70
2023-03-18T13:11:44.820Z,2.37
2023-03-18T13:14:17.891Z,1.97
2023-03-18T13:16:48.150Z,2.47
2023-03-18T13:19:16.492Z,2.70
2023-03-18T13:21:47.189Z,2.60
2023-03-18T13:24:33.600Z,3.40
2023-03-18T13:27:17.902Z,2.40
2023-03-18T13:29:49.944Z,2.60
2023-03-18T13:32:30.151Z,2.27
2023-03-18T13:35:13.321Z,2.03
2023-03-18T13:37:59.820Z,2.60
2023-03-18T13:40:48.752Z,2.33
2023-03-18T13:43:18.454Z,2.30
2023-03-18T13:45:47.534Z,2.60
2023-03-18T13:48:18.437Z,2.77
2023-03-18T13:50:47.442Z,2.63
2023-03-18T13:53:22.294Z,2.40
2023-03-18T13:55:54.190Z,2.23
2023-03-18T13:58:23.926Z,2.20
2023-03-18T14:01:13.402Z,2.90
2023-03-18T14:03:56.414Z,2.40
2023-03-18T14:06:24.840Z,2.27
2023-03-18T14:09:22.377Z,2.30
2023-03-18T14:11:52.867Z,2.23
2023-03-18T14:14:35.854Z,2.10
2023-03-18T14:17:04.912Z,2.33
2023-03-18T14:19:33.135Z,2.67
2023-03-18T14:22:07.637Z,2.53
2023-03-18T14:24:37.848Z,2.30
2023-03-18T14:27:16.868Z,2.40
2023-03-18T14:29:46.699Z,2.50
2023-03-18T14:32:29.299Z,2.33
2023-03-18T14:34:58.685Z,2.63
2023-03-18T14:37:28.017Z,2.33
2023-03-18T14:40:00.354Z,2.80
2023-03-18T14:42:39.112Z,2.70
2023-03-18T14:45:08.855Z,2.57
2023-03-18T14:47:43.334Z,2.80
2023-03-18T14:50:16.223Z,2.83
2023-03-18T14:52:45.600Z,2.00
2023-03-18T14:55:20.447Z,2.47
2023-03-18T14:57:48.205Z,1.97
2023-03-18T15:00:17.048Z,2.20
2023-03-18T15:02:47.650Z,2.60
2023-03-18T15:05:17.541Z,1.93
2023-03-18T15:07:48.163Z,2.03
2023-03-18T15:10:24.849Z,2.20
2023-03-18T15:12:59.751Z,2.20
2023-03-18T15:15:28.739Z,1.70
2023-03-18T15:17:56.589Z,2.17
2023-03-18T15:20:24.698Z,1.87
2023-03-18T15:22:53.067Z,1.77
2023-03-18T15:25:24.547Z,2.10
2023-03-18T15:27:55.377Z,2.07
2023-03-18T15:30:26.741Z,1.90
2023-03-18T15:32:57.766Z,1.97
2023-03-18T15:35:26.713Z,1.90
2023-03-18T15:38:04.936Z,2.00
2023-03-18T15:40:36.491Z,1.80
2023-03-18T15:43:06.263Z,2.37
2023-03-18T15:45:34.580Z,2.40
2023-03-18T15:48:08.314Z,2.30
2023-03-18T15:50:37.023Z,1.97
2023-03-18T15:53:18.022Z,1.93
2023-03-18T15:55:51.660Z,1.80
2023-03-18T15:58:24.348Z,2.30
2023-03-18T16:00:52.779Z,2.00
2023-03-18T16:03:23.491Z,1.70
2023-03-18T16:05:51.876Z,2.30
2023-03-18T16:08:21.606Z,2.80
2023-03-18T16:10:52.104Z,4.97
2023-03-18T16:13:25.178Z,2.60
2023-03-18T16:15:54.443Z,2.30
2023-03-18T16:18:22.216Z,1.70
2023-03-18T16:20:51.177Z,2.00
2023-03-18T16:23:19.423Z,1.90
2023-03-18T16:25:48.593Z,1.83
2023-03-18T16:28:20.705Z,1.70
2023-03-18T16:30:49.572Z,2.00
2023-03-18T16:33:19.081Z,2.03
2023-03-18T16:35:49.377Z,2.50
2023-03-18T16:38:18.066Z,2.27
2023-03-18T16:40:46.835Z,2.47
2023-03-18T16:43:21.066Z,2.30
2023-03-18T16:45:49.250Z,1.87
2023-03-18T16:48:18.439Z,2.63
2023-03-18T16:50:49.155Z,2.70
2023-03-18T16:53:18.582Z,2.00
2023-03-18T16:55:46.994Z,2.53
2023-03-18T16:58:17.948Z,3.30
2023-03-18T17:00:51.297Z,2.17
2023-03-18T17:03:20.320Z,2.57
2023-03-18T17:05:50.312Z,2.70
2023-03-18T17:08:19.687Z,2.77
2023-03-18T17:10:48.243Z,2.93
2023-03-18T17:13:20.733Z,2.50
2023-03-18T17:15:50.372Z,2.67
2023-03-18T17:18:20.805Z,2.93
2023-03-18T17:20:48.944Z,3.27
2023-03-18T17:23:19.333Z,3.40
2023-03-18T17:25:51.234Z,3.10
2023-03-18T17:28:22.338Z,4.27
2023-03-18T17:30:52.010Z,6.30
2023-03-18T17:33:24.308Z,6.40
2023-03-18T17:35:52.745Z,5.73
2023-03-18T17:38:20.908Z,5.93
2023-03-18T17:40:49.361Z,5.27
2023-03-18T17:43:27.604Z,5.67
2023-03-18T17:45:57.369Z,5.83
2023-03-18T17:48:26.196Z,6.53
2023-03-18T17:50:55.325Z,6.43
2023-03-18T17:53:24.991Z,7.17
2023-03-18T17:55:53.687Z,6.10
2023-03-18T17:58:22.979Z,6.53
2023-03-18T18:00:51.978Z,6.27
2023-03-18T18:03:22.936Z,6.30
2023-03-18T18:05:50.719Z,5.67
2023-03-18T18:08:19.984Z,4.10
2023-03-18T18:10:48.353Z,3.97
2023-03-18T18:13:17.435Z,4.40
2023-03-18T18:15:46.125Z,4.87
2023-03-18T18:18:17.492Z,5.20
2023-03-18T18:20:47.855Z,6.13
2023-03-18T18:23:25.091Z,6.10
2023-03-18T18:25:53.402Z,5.97
2023-03-18T18:28:22.496Z,6.33
2023-03-18T18:30:50.805Z,5.17
2023-03-18T18:33:18.982Z,5.07
2023-03-18T18:35:48.331Z,4.73
2023-03-18T18:38:16.138Z,6.93
2023-03-18T18:40:44.175Z,6.40
2023-03-18T18:43:14.900Z,5.90
2023-03-18T18:45:43.677Z,5.60
2023-03-18T18:48:12.798Z,6.90
2023-03-18T18:50:41.584Z,8.13
2023-03-18T18:53:23.114Z,5.13
2023-03-18T18:55:51.435Z,5.50
2023-03-18T18:58:20.073Z,9.90
2023-03-18T19:00:49.410Z,15.77
2023-03-18T19:03:18.090Z,18.40
2023-03-18T19:05:47.010Z,15.77
2023-03-18T19:08:28.690Z,22.23
2023-03-18T19:10:57.611Z,11.07
2023-03-18T19:13:26.935Z,8.97
2023-03-18T19:15:56.172Z,7.17
2023-03-18T19:18:25.006Z,6.10
2023-03-18T19:20:53.041Z,6.47
2023-03-18T19:23:23.620Z,5.80
2023-03-18T19:25:53.509Z,6.73
2023-03-18T19:28:29.210Z,6.30
2023-03-18T19:30:56.986Z,7.70
2023-03-18T19:33:26.146Z,6.83
2023-03-18T19:35:54.110Z,6.33
2023-03-18T19:38:22.978Z,6.50
2023-03-18T19:40:52.863Z,6.70
2023-03-18T19:43:23.152Z,7.13
2023-03-18T19:45:52.069Z,7.67
2023-03-18T19:48:21.339Z,7.67
2023-03-18T19:50:49.121Z,7.20
2023-03-18T19:53:17.512Z,6.73
2023-03-18T19:55:47.349Z,7.10
2023-03-18T19:58:19.474Z,6.47
2023-03-18T20:00:49.025Z,6.10
2023-03-18T20:03:18.368Z,6.43
2023-03-18T20:05:46.591Z,6.57
2023-03-18T20:08:14.883Z,5.80
2023-03-18T20:10:43.653Z,6.57
2023-03-18T20:13:15.247Z,5.57
2023-03-18T20:15:43.689Z,5.53
2023-03-18T20:18:17.054Z,6.17
2023-03-18T20:20:46.502Z,6.33
2023-03-18T20:23:18.995Z,6.53
2023-03-18T20:25:49.770Z,6.23
2023-03-18T20:28:19.012Z,6.50
2023-03-18T20:30:47.753Z,6.03
2023-03-18T20:33:17.106Z,6.50
2023-03-18T20:35:45.683Z,6.27
2023-03-18T20:38:15.698Z,6.57
2023-03-18T20:40:47.960Z,6.20
2023-03-18T20:43:17.129Z,5.57
2023-03-18T20:45:44.918Z,5.40
2023-03-18T20:48:13.834Z,4.57
2023-03-18T20:50:43.265Z,4.70
2023-03-18T20:53:15.797Z,4.90
2023-03-18T20:55:43.795Z,5.20
2023-03-18T20:58:15.147Z,4.47
2023-03-18T21:00:43.212Z,3.83
2023-03-18T21:03:18.279Z,4.77
2023-03-18T21:05:47.776Z,4.83
2023-03-18T21:08:16.302Z,4.23
2023-03-18T21:10:44.504Z,4.37
2023-03-18T21:13:18.010Z,4.97
2023-03-18T21:15:47.899Z,4.03
2023-03-18T21:18:15.781Z,4.03
2023-03-18T21:20:43.674Z,3.93
2023-03-18T21:23:18.622Z,4.73
2023-03-18T21:25:46.470Z,4.57
2023-03-18T21:28:15.309Z,4.93
2023-03-18T21:30:43.484Z,4.50
2023-03-18T21:33:21.040Z,4.87
2023-03-18T21:35:50.505Z,3.97
2023-03-18T21:38:19.981Z,4.57
2023-03-18T21:40:47.834Z,3.97
2023-03-18T21:43:26.704Z,4.13
2023-03-18T21:45:54.948Z,5.20
2023-03-18T21:48:25.001Z,4.47
2023-03-18T21:50:52.840Z,4.37
2023-03-18T21:53:23.448Z,3.60
2023-03-18T21:55:52.024Z,4.23
2023-03-18T21:58:21.447Z,5.10
2023-03-18T22:00:50.848Z,4.33
2023-03-18T22:03:19.649Z,5.33
2023-03-18T22:05:48.794Z,4.80
2023-03-18T22:08:19.437Z,6.10
2023-03-18T22:10:49.656Z,4.90
2023-03-18T22:13:19.542Z,7.13
2023-03-18T22:15:47.907Z,4.70
2023-03-18T22:18:16.210Z,4.20
2023-03-18T22:20:44.291Z,5.17
2023-03-18T22:23:13.404Z,4.07
2023-03-18T22:25:42.103Z,8.93
2023-03-18T22:28:12.756Z,11.90
2023-03-18T22:30:41.677Z,12.93
2023-03-18T22:33:17.709Z,12.33
2023-03-18T22:35:46.011Z,16.83
2023-03-18T22:38:15.228Z,18.17
2023-03-18T22:40:43.858Z,17.97
2023-03-18T22:43:19.069Z,17.47
2023-03-18T22:45:46.927Z,13.43
2023-03-18T22:48:17.484Z,10.07
2023-03-18T22:50:46.723Z,10.37
2023-03-18T22:53:18.268Z,11.57
2023-03-18T22:55:46.958Z,10.10
2023-03-18T22:58:20.377Z,8.50
2023-03-18T23:00:50.005Z,9.00
2023-03-18T23:03:19.613Z,5.60
2023-03-18T23:05:48.225Z,6.90
2023-03-18T23:08:16.838Z,7.23
2023-03-18T23:10:45.176Z,6.87
2023-03-18T23:13:17.684Z,7.23
2023-03-18T23:15:45.873Z,8.97
2023-03-18T23:18:16.574Z,6.97
2023-03-18T23:20:45.031Z,7.20
2023-03-18T23:23:13.237Z,6.60
2023-03-18T23:25:42.078Z,6.70
2023-03-18T23:28:11.448Z,7.73
2023-03-18T23:30:40.590Z,6.73
2023-03-18T23:33:08.531Z,6.53
2023-03-18T23:35:38.715Z,6.40
2023-03-18T23:38:07.950Z,7.13
2023-03-18T23:40:35.648Z,6.83
2023-03-18T23:43:03.442Z,6.73
2023-03-18T23:45:32.560Z,6.67
2023-03-18T23:48:00.736Z,7.00
2023-03-18T23:50:28.740Z,6.93
2023-03-18T23:52:58.497Z,7.37
2023-03-18T23:55:45.826Z,6.63
2023-03-18T23:58:13.869Z,8.43
